EKSN/CNL METAR and TAF weather

Enter ICAO airport designator
Station Type Date Time Source
EKSN METAR 2020/12/04 10:50 UTC NOAA

EKSN 041050Z 12020KT 9999 SCT026 BKN055 04/01 Q0996


Station Type Date Time Source
EKSN Decoded METAR 2020/12/04 10:50 UTC NOAA

Sindal Flyveplads, Denmark (EKSN) 57-30N 010-13E 28M
Dec 04, 2020 - 05:50 AM EST / 2020.12.04 1050 UTC
Wind: from the ESE (120 degrees) at 23 MPH (20 KT):0
Visibility: greater than 7 mile(s):0
Sky conditions: mostly cloudy
Temperature: 39 F (4 C)
Dew Point: 33 F (1 C)
Relative Humidity: 80%
Pressure (altimeter): 29.41 in. Hg (0996 hPa)
ob: EKSN 041050Z 12020KT 9999 SCT026 BKN055 04/01 Q0996
cycle: 11

Station Type Date Time Source
EKSN TAF UTC NOAA

Error!

Example: see airport list